sensor_id;sensor_type;location;lat;lon;timestamp;pressure;altitude;pressure_sealevel;temperature;humidity
10006;BME280;5042;42.626;23.382;2023-07-24T00:01:35;94643.16;;;20.26;100.00
10006;BME280;5042;42.626;23.382;2023-07-24T00:04:04;94646.69;;;20.32;100.00
10006;BME280;5042;42.626;23.382;2023-07-24T00:06:30;94640.56;;;20.31;100.00
10006;BME280;5042;42.626;23.382;2023-07-24T00:08:57;94644.84;;;20.32;100.00
10006;BME280;5042;42.626;23.382;2023-07-24T00:11:24;94639.00;;;20.36;100.00
10006;BME280;5042;42.626;23.382;2023-07-24T00:13:50;94637.84;;;20.26;100.00
10006;BME280;5042;42.626;23.382;2023-07-24T00:16:17;94634.03;;;20.22;100.00
10006;BME280;5042;42.626;23.382;2023-07-24T00:18:44;94631.69;;;20.09;100.00
10006;BME280;5042;42.626;23.382;2023-07-24T00:21:12;94635.81;;;20.00;100.00
10006;BME280;5042;42.626;23.382;2023-07-24T00:23:39;94632.84;;;19.96;100.00
10006;BME280;5042;42.626;23.382;2023-07-24T00:26:05;94631.69;;;19.92;100.00
10006;BME280;5042;42.626;23.382;2023-07-24T00:28:32;94633.06;;;19.95;100.00
10006;BME280;5042;42.626;23.382;2023-07-24T00:30:59;94630.97;;;19.97;100.00
10006;BME280;5042;42.626;23.382;2023-07-24T00:33:27;94641.84;;;20.12;100.00
10006;BME280;5042;42.626;23.382;2023-07-24T00:35:55;94641.38;;;20.15;100.00
10006;BME280;5042;42.626;23.382;2023-07-24T00:38:24;94633.72;;;20.02;100.00
10006;BME280;5042;42.626;23.382;2023-07-24T00:40:51;94633.78;;;20.07;100.00
10006;BME280;5042;42.626;23.382;2023-07-24T00:43:17;94634.19;;;19.99;100.00
10006;BME280;5042;42.626;23.382;2023-07-24T00:45:45;94632.69;;;20.03;100.00
10006;BME280;5042;42.626;23.382;2023-07-24T00:48:13;94632.56;;;19.98;100.00
10006;BME280;5042;42.626;23.382;2023-07-24T00:50:42;94628.72;;;19.88;100.00
10006;BME280;5042;42.626;23.382;2023-07-24T00:53:09;94619.31;;;19.69;100.00
10006;BME280;5042;42.626;23.382;2023-07-24T00:55:38;94628.41;;;19.56;100.00
10006;BME280;5042;42.626;23.382;2023-07-24T00:58:05;94630.31;;;19.44;100.00
10006;BME280;5042;42.626;23.382;2023-07-24T01:00:32;94628.44;;;19.44;100.00
10006;BME280;5042;42.626;23.382;2023-07-24T01:02:59;94624.72;;;19.45;100.00
10006;BME280;5042;42.626;23.382;2023-07-24T01:05:26;94630.09;;;19.34;100.00
10006;BME280;5042;42.626;23.382;2023-07-24T01:07:53;94620.44;;;19.27;100.00
10006;BME280;5042;42.626;23.382;2023-07-24T01:10:19;94610.59;;;19.28;100.00
10006;BME280;5042;42.626;23.382;2023-07-24T01:12:54;94619.91;;;19.42;100.00
10006;BME280;5042;42.626;23.382;2023-07-24T01:15:29;94567.03;;;19.00;100.00
10006;BME280;5042;42.626;23.382;2023-07-24T01:17:59;94615.06;;;19.39;100.00
10006;BME280;5042;42.626;23.382;2023-07-24T01:20:29;94616.31;;;19.48;100.00
10006;BME280;5042;42.626;23.382;2023-07-24T01:23:20;94612.09;;;19.53;100.00
10006;BME280;5042;42.626;23.382;2023-07-24T01:25:56;94621.41;;;19.38;100.00
10006;BME280;5042;42.626;23.382;2023-07-24T01:28:23;94621.94;;;19.23;100.00
10006;BME280;5042;42.626;23.382;2023-07-24T01:30:50;94619.50;;;19.22;100.00
10006;BME280;5042;42.626;23.382;2023-07-24T01:33:17;94619.00;;;19.08;100.00
10006;BME280;5042;42.626;23.382;2023-07-24T01:35:44;94618.75;;;19.10;100.00
10006;BME280;5042;42.626;23.382;2023-07-24T01:38:11;94557.63;;;18.69;100.00
10006;BME280;5042;42.626;23.382;2023-07-24T01:40:39;94613.34;;;19.04;100.00
10006;BME280;5042;42.626;23.382;2023-07-24T01:43:08;94620.53;;;18.92;100.00
10006;BME280;5042;42.626;23.382;2023-07-24T01:45:35;94563.81;;;18.46;100.00
10006;BME280;5042;42.626;23.382;2023-07-24T01:48:03;94575.34;;;18.40;100.00
10006;BME280;5042;42.626;23.382;2023-07-24T01:50:30;94614.09;;;18.53;100.00
10006;BME280;5042;42.626;23.382;2023-07-24T01:52:57;94615.75;;;18.42;100.00
10006;BME280;5042;42.626;23.382;2023-07-24T01:55:24;94594.75;;;18.29;100.00
10006;BME280;5042;42.626;23.382;2023-07-24T01:57:51;94637.28;;;18.69;100.00
10006;BME280;5042;42.626;23.382;2023-07-24T02:00:19;94634.19;;;18.84;100.00
10006;BME280;5042;42.626;23.382;2023-07-24T02:02:46;94628.75;;;18.79;100.00
10006;BME280;5042;42.626;23.382;2023-07-24T02:05:12;94625.53;;;18.77;100.00
10006;BME280;5042;42.626;23.382;2023-07-24T02:07:39;94628.19;;;18.77;100.00
10006;BME280;5042;42.626;23.382;2023-07-24T02:10:07;94619.19;;;18.78;100.00
10006;BME280;5042;42.626;23.382;2023-07-24T02:12:34;94622.75;;;18.83;100.00
10006;BME280;5042;42.626;23.382;2023-07-24T02:15:01;94625.66;;;18.82;100.00
10006;BME280;5042;42.626;23.382;2023-07-24T02:17:29;94623.81;;;18.82;100.00
10006;BME280;5042;42.626;23.382;2023-07-24T02:19:55;94619.16;;;18.90;100.00
10006;BME280;5042;42.626;23.382;2023-07-24T02:22:22;94617.09;;;18.80;100.00
10006;BME280;5042;42.626;23.382;2023-07-24T02:24:49;94617.41;;;18.72;100.00
10006;BME280;5042;42.626;23.382;2023-07-24T02:27:25;94604.63;;;18.69;100.00
10006;BME280;5042;42.626;23.382;2023-07-24T02:29:52;94615.59;;;18.84;100.00
10006;BME280;5042;42.626;23.382;2023-07-24T02:32:19;94614.19;;;18.81;100.00
10006;BME280;5042;42.626;23.382;2023-07-24T02:34:49;94606.22;;;18.81;100.00
10006;BME280;5042;42.626;23.382;2023-07-24T02:37:16;94606.94;;;18.77;100.00
10006;BME280;5042;42.626;23.382;2023-07-24T02:39:42;94605.09;;;18.65;100.00
10006;BME280;5042;42.626;23.382;2023-07-24T02:42:09;94599.13;;;18.58;100.00
10006;BME280;5042;42.626;23.382;2023-07-24T02:44:36;94607.97;;;18.76;100.00
10006;BME280;5042;42.626;23.382;2023-07-24T02:47:03;94609.38;;;18.78;100.00
10006;BME280;5042;42.626;23.382;2023-07-24T02:49:30;94613.16;;;18.71;100.00
10006;BME280;5042;42.626;23.382;2023-07-24T02:51:58;94613.06;;;18.77;100.00
10006;BME280;5042;42.626;23.382;2023-07-24T02:54:25;94618.38;;;18.89;100.00
10006;BME280;5042;42.626;23.382;2023-07-24T02:56:52;94614.31;;;18.75;100.00
10006;BME280;5042;42.626;23.382;2023-07-24T02:59:18;94616.84;;;18.70;100.00
10006;BME280;5042;42.626;23.382;2023-07-24T03:01:45;94613.38;;;18.69;100.00
10006;BME280;5042;42.626;23.382;2023-07-24T03:04:12;94612.81;;;18.67;100.00
10006;BME280;5042;42.626;23.382;2023-07-24T03:06:39;94592.66;;;18.54;100.00
10006;BME280;5042;42.626;23.382;2023-07-24T03:09:07;94604.16;;;18.72;100.00
10006;BME280;5042;42.626;23.382;2023-07-24T03:11:33;94611.00;;;18.68;100.00
10006;BME280;5042;42.626;23.382;2023-07-24T03:14:00;94598.63;;;18.61;100.00
10006;BME280;5042;42.626;23.382;2023-07-24T03:16:27;94597.03;;;18.60;100.00
10006;BME280;5042;42.626;23.382;2023-07-24T03:18:53;94601.88;;;18.63;100.00
10006;BME280;5042;42.626;23.382;2023-07-24T03:21:20;94598.16;;;18.64;100.00
10006;BME280;5042;42.626;23.382;2023-07-24T03:23:47;94593.69;;;18.65;100.00
10006;BME280;5042;42.626;23.382;2023-07-24T03:26:15;94600.59;;;18.66;100.00
10006;BME280;5042;42.626;23.382;2023-07-24T03:28:42;94598.03;;;18.71;100.00
10006;BME280;5042;42.626;23.382;2023-07-24T03:31:08;94604.72;;;18.74;100.00
10006;BME280;5042;42.626;23.382;2023-07-24T03:33:35;94600.47;;;18.73;100.00
10006;BME280;5042;42.626;23.382;2023-07-24T03:36:02;94598.44;;;18.51;100.00
10006;BME280;5042;42.626;23.382;2023-07-24T03:38:28;94602.56;;;18.47;100.00
10006;BME280;5042;42.626;23.382;2023-07-24T03:40:55;94608.69;;;18.48;100.00
10006;BME280;5042;42.626;23.382;2023-07-24T03:43:23;94606.97;;;18.53;100.00
10006;BME280;5042;42.626;23.382;2023-07-24T03:45:50;94612.81;;;18.55;100.00
10006;BME280;5042;42.626;23.382;2023-07-24T03:48:17;94599.13;;;18.58;100.00
10006;BME280;5042;42.626;23.382;2023-07-24T03:50:43;94613.50;;;18.74;100.00
10006;BME280;5042;42.626;23.382;2023-07-24T03:53:10;94616.53;;;18.78;100.00
10006;BME280;5042;42.626;23.382;2023-07-24T03:55:37;94619.50;;;18.81;100.00
10006;BME280;5042;42.626;23.382;2023-07-24T03:58:04;94598.75;;;18.67;100.00
10006;BME280;5042;42.626;23.382;2023-07-24T04:00:32;94621.03;;;18.77;100.00
10006;BME280;5042;42.626;23.382;2023-07-24T04:02:59;94624.81;;;18.70;100.00
10006;BME280;5042;42.626;23.382;2023-07-24T04:05:25;94622.63;;;18.67;100.00
10006;BME280;5042;42.626;23.382;2023-07-24T04:07:53;94625.75;;;18.63;100.00
10006;BME280;5042;42.626;23.382;2023-07-24T04:10:20;94621.47;;;18.62;100.00
10006;BME280;5042;42.626;23.382;2023-07-24T04:12:46;94629.91;;;18.71;100.00
10006;BME280;5042;42.626;23.382;2023-07-24T04:15:13;94611.19;;;18.90;100.00
10006;BME280;5042;42.626;23.382;2023-07-24T04:17:41;94628.06;;;19.24;100.00
10006;BME280;5042;42.626;23.382;2023-07-24T04:20:09;94635.56;;;19.56;100.00
10006;BME280;5042;42.626;23.382;2023-07-24T04:22:35;94632.44;;;19.59;100.00
10006;BME280;5042;42.626;23.382;2023-07-24T04:25:02;94636.53;;;19.66;100.00
10006;BME280;5042;42.626;23.382;2023-07-24T04:27:29;94629.31;;;19.79;100.00
10006;BME280;5042;42.626;23.382;2023-07-24T04:29:56;94622.56;;;20.05;100.00
10006;BME280;5042;42.626;23.382;2023-07-24T04:32:22;94624.03;;;20.29;100.00
10006;BME280;5042;42.626;23.382;2023-07-24T04:34:50;94624.97;;;20.74;100.00
10006;BME280;5042;42.626;23.382;2023-07-24T04:37:17;94628.44;;;20.96;100.00
10006;BME280;5042;42.626;23.382;2023-07-24T04:39:44;94626.09;;;21.00;100.00
10006;BME280;5042;42.626;23.382;2023-07-24T04:42:10;94627.94;;;21.22;100.00
10006;BME280;5042;42.626;23.382;2023-07-24T04:44:37;94622.31;;;21.67;100.00
10006;BME280;5042;42.626;23.382;2023-07-24T04:47:04;94633.53;;;21.69;100.00
10006;BME280;5042;42.626;23.382;2023-07-24T04:49:31;94626.81;;;21.39;100.00
10006;BME280;5042;42.626;23.382;2023-07-24T04:51:59;94630.53;;;21.66;100.00
10006;BME280;5042;42.626;23.382;2023-07-24T04:54:26;94636.75;;;22.31;100.00
10006;BME280;5042;42.626;23.382;2023-07-24T04:56:53;94636.28;;;22.92;100.00
10006;BME280;5042;42.626;23.382;2023-07-24T04:59:19;94640.81;;;23.44;100.00
10006;BME280;5042;42.626;23.382;2023-07-24T05:01:46;94635.06;;;23.98;100.00
10006;BME280;5042;42.626;23.382;2023-07-24T05:04:12;94638.81;;;24.53;100.00
10006;BME280;5042;42.626;23.382;2023-07-24T05:06:39;94640.88;;;24.97;99.91
10006;BME280;5042;42.626;23.382;2023-07-24T05:09:07;94650.91;;;25.47;97.52
10006;BME280;5042;42.626;23.382;2023-07-24T05:11:34;94651.84;;;25.71;88.88
10006;BME280;5042;42.626;23.382;2023-07-24T05:14:01;94645.69;;;26.15;88.39
10006;BME280;5042;42.626;23.382;2023-07-24T05:16:27;94659.72;;;26.41;84.21
10006;BME280;5042;42.626;23.382;2023-07-24T05:18:54;94651.03;;;26.50;84.38
10006;BME280;5042;42.626;23.382;2023-07-24T05:21:21;94650.44;;;26.87;82.38
10006;BME280;5042;42.626;23.382;2023-07-24T05:23:47;94656.25;;;27.23;83.16
10006;BME280;5042;42.626;23.382;2023-07-24T05:26:15;94658.41;;;27.64;79.32
10006;BME280;5042;42.626;23.382;2023-07-24T05:28:42;94649.19;;;27.52;78.16
10006;BME280;5042;42.626;23.382;2023-07-24T05:31:09;94659.94;;;27.95;75.00
10006;BME280;5042;42.626;23.382;2023-07-24T05:33:35;94649.41;;;28.31;73.92
10006;BME280;5042;42.626;23.382;2023-07-24T05:36:03;94668.66;;;28.24;71.78
10006;BME280;5042;42.626;23.382;2023-07-24T05:38:30;94659.47;;;28.06;71.96
10006;BME280;5042;42.626;23.382;2023-07-24T05:40:58;94660.03;;;28.41;74.48
10006;BME280;5042;42.626;23.382;2023-07-24T05:43:27;94656.75;;;28.77;71.03
10006;BME280;5042;42.626;23.382;2023-07-24T05:45:55;94656.41;;;29.11;69.53
10006;BME280;5042;42.626;23.382;2023-07-24T05:48:23;94651.63;;;29.08;69.01
10006;BME280;5042;42.626;23.382;2023-07-24T05:50:50;94631.53;;;29.14;71.32
10006;BME280;5042;42.626;23.382;2023-07-24T05:53:17;94651.09;;;29.62;64.82
10006;BME280;5042;42.626;23.382;2023-07-24T05:55:43;94638.53;;;29.93;64.30
10006;BME280;5042;42.626;23.382;2023-07-24T05:58:10;94643.19;;;29.51;63.75
10006;BME280;5042;42.626;23.382;2023-07-24T06:00:38;94641.69;;;29.73;71.58
10006;BME280;5042;42.626;23.382;2023-07-24T06:03:05;94631.59;;;29.37;65.68
10006;BME280;5042;42.626;23.382;2023-07-24T06:05:32;94633.66;;;28.85;67.50
10006;BME280;5042;42.626;23.382;2023-07-24T06:07:58;94627.72;;;27.65;74.18
10006;BME280;5042;42.626;23.382;2023-07-24T06:10:25;94621.44;;;27.08;81.13
10006;BME280;5042;42.626;23.382;2023-07-24T06:12:52;94620.25;;;27.19;81.85
10006;BME280;5042;42.626;23.382;2023-07-24T06:15:18;94618.16;;;27.35;82.09
10006;BME280;5042;42.626;23.382;2023-07-24T06:17:46;94624.06;;;26.89;86.27
10006;BME280;5042;42.626;23.382;2023-07-24T06:20:13;94619.38;;;27.24;83.84
10006;BME280;5042;42.626;23.382;2023-07-24T06:22:40;94627.50;;;27.62;80.06
10006;BME280;5042;42.626;23.382;2023-07-24T06:25:07;94619.63;;;27.46;83.77
10006;BME280;5042;42.626;23.382;2023-07-24T06:27:34;94628.13;;;26.86;86.48
10006;BME280;5042;42.626;23.382;2023-07-24T06:30:00;94621.50;;;26.74;85.45
10006;BME280;5042;42.626;23.382;2023-07-24T06:32:28;94621.09;;;27.15;84.31
10006;BME280;5042;42.626;23.382;2023-07-24T06:34:56;94604.91;;;27.20;85.15
10006;BME280;5042;42.626;23.382;2023-07-24T06:37:22;94619.38;;;27.43;86.37
10006;BME280;5042;42.626;23.382;2023-07-24T06:39:49;94571.00;;;27.57;83.05
10006;BME280;5042;42.626;23.382;2023-07-24T06:42:16;94617.59;;;28.14;82.32
10006;BME280;5042;42.626;23.382;2023-07-24T06:44:42;94618.94;;;27.98;79.65
10006;BME280;5042;42.626;23.382;2023-07-24T06:47:09;94622.06;;;28.05;80.83
10006;BME280;5042;42.626;23.382;2023-07-24T06:49:36;94621.84;;;28.53;81.65
10006;BME280;5042;42.626;23.382;2023-07-24T06:52:04;94625.56;;;28.85;81.00
10006;BME280;5042;42.626;23.382;2023-07-24T06:54:31;94623.84;;;28.61;75.43
10006;BME280;5042;42.626;23.382;2023-07-24T06:56:58;94626.97;;;28.82;78.00
10006;BME280;5042;42.626;23.382;2023-07-24T06:59:24;94625.41;;;29.09;73.63
10006;BME280;5042;42.626;23.382;2023-07-24T07:01:51;94621.00;;;29.41;73.90
10006;BME280;5042;42.626;23.382;2023-07-24T07:04:18;94630.97;;;29.82;76.08
10006;BME280;5042;42.626;23.382;2023-07-24T07:06:44;94622.28;;;29.57;75.71
10006;BME280;5042;42.626;23.382;2023-07-24T07:09:12;94632.50;;;29.05;72.90
10006;BME280;5042;42.626;23.382;2023-07-24T07:11:39;94629.63;;;28.36;76.48
10006;BME280;5042;42.626;23.382;2023-07-24T07:14:06;94626.22;;;28.49;81.51
10006;BME280;5042;42.626;23.382;2023-07-24T07:16:34;94614.34;;;28.64;73.93
10006;BME280;5042;42.626;23.382;2023-07-24T07:19:01;94637.03;;;29.09;73.80
10006;BME280;5042;42.626;23.382;2023-07-24T07:21:27;94633.72;;;29.26;75.43
10006;BME280;5042;42.626;23.382;2023-07-24T07:23:54;94625.97;;;29.61;71.86
10006;BME280;5042;42.626;23.382;2023-07-24T07:26:22;94625.78;;;30.08;69.17
10006;BME280;5042;42.626;23.382;2023-07-24T07:28:49;94629.97;;;30.14;72.09
10006;BME280;5042;42.626;23.382;2023-07-24T07:31:16;94624.94;;;30.21;70.62
10006;BME280;5042;42.626;23.382;2023-07-24T07:33:42;94623.09;;;30.53;71.35
10006;BME280;5042;42.626;23.382;2023-07-24T07:36:09;94624.34;;;31.18;70.60
10006;BME280;5042;42.626;23.382;2023-07-24T07:38:36;94631.19;;;31.46;64.57
10006;BME280;5042;42.626;23.382;2023-07-24T07:41:05;94621.88;;;31.39;64.96
10006;BME280;5042;42.626;23.382;2023-07-24T07:43:33;94627.69;;;31.72;60.83
10006;BME280;5042;42.626;23.382;2023-07-24T07:46:01;94619.56;;;31.55;60.55
10006;BME280;5042;42.626;23.382;2023-07-24T07:48:28;94625.44;;;31.48;61.14
10006;BME280;5042;42.626;23.382;2023-07-24T07:50:55;94626.13;;;31.88;60.66
10006;BME280;5042;42.626;23.382;2023-07-24T07:53:21;94632.22;;;32.11;61.16
10006;BME280;5042;42.626;23.382;2023-07-24T07:55:55;94638.28;;;32.26;56.87
10006;BME280;5042;42.626;23.382;2023-07-24T07:58:22;94632.16;;;31.59;57.40
10006;BME280;5042;42.626;23.382;2023-07-24T08:00:50;94630.22;;;31.51;58.68
10006;BME280;5042;42.626;23.382;2023-07-24T08:03:17;94629.66;;;31.23;58.18
10006;BME280;5042;42.626;23.382;2023-07-24T08:05:43;94631.31;;;31.41;62.21
10006;BME280;5042;42.626;23.382;2023-07-24T08:08:10;94622.13;;;31.11;59.01
10006;BME280;5042;42.626;23.382;2023-07-24T08:10:37;94616.63;;;30.94;62.23
10006;BME280;5042;42.626;23.382;2023-07-24T08:13:04;94620.94;;;30.41;58.54
10006;BME280;5042;42.626;23.382;2023-07-24T08:15:34;94619.25;;;30.09;64.58
10006;BME280;5042;42.626;23.382;2023-07-24T08:18:02;94620.81;;;30.23;60.70
10006;BME280;5042;42.626;23.382;2023-07-24T08:20:29;94613.03;;;30.45;59.29
10006;BME280;5042;42.626;23.382;2023-07-24T08:22:56;94608.97;;;30.64;59.45
10006;BME280;5042;42.626;23.382;2023-07-24T08:25:23;94609.13;;;30.91;61.55
10006;BME280;5042;42.626;23.382;2023-07-24T08:27:49;94605.66;;;30.99;59.73
10006;BME280;5042;42.626;23.382;2023-07-24T08:30:16;94597.72;;;30.71;55.80
10006;BME280;5042;42.626;23.382;2023-07-24T08:32:43;94594.81;;;30.59;61.66
10006;BME280;5042;42.626;23.382;2023-07-24T08:35:11;94604.41;;;31.05;57.97
10006;BME280;5042;42.626;23.382;2023-07-24T08:37:38;94591.50;;;31.42;61.35
10006;BME280;5042;42.626;23.382;2023-07-24T08:40:06;94594.38;;;31.72;54.08
10006;BME280;5042;42.626;23.382;2023-07-24T08:42:33;94593.75;;;30.77;52.47
10006;BME280;5042;42.626;23.382;2023-07-24T08:45:00;94594.72;;;31.04;59.00
10006;BME280;5042;42.626;23.382;2023-07-24T08:47:28;94581.56;;;31.37;56.20
10006;BME280;5042;42.626;23.382;2023-07-24T08:49:55;94579.38;;;31.65;57.16
10006;BME280;5042;42.626;23.382;2023-07-24T08:52:23;94587.72;;;32.04;54.15
10006;BME280;5042;42.626;23.382;2023-07-24T08:54:51;94588.50;;;31.87;50.19
10006;BME280;5042;42.626;23.382;2023-07-24T08:57:18;94587.41;;;32.23;54.37
10006;BME280;5042;42.626;23.382;2023-07-24T08:59:46;94588.63;;;32.51;50.69
10006;BME280;5042;42.626;23.382;2023-07-24T09:02:12;94580.94;;;32.62;52.41
10006;BME280;5042;42.626;23.382;2023-07-24T09:04:39;94588.00;;;32.20;51.48
10006;BME280;5042;42.626;23.382;2023-07-24T09:07:06;94588.75;;;32.64;49.80
10006;BME280;5042;42.626;23.382;2023-07-24T09:09:34;94588.84;;;32.11;46.64
10006;BME280;5042;42.626;23.382;2023-07-24T09:12:01;94580.81;;;31.89;49.94
10006;BME280;5042;42.626;23.382;2023-07-24T09:14:28;94574.16;;;32.21;55.23
10006;BME280;5042;42.626;23.382;2023-07-24T09:17:03;94547.50;;;32.23;47.15
10006;BME280;5042;42.626;23.382;2023-07-24T09:19:30;94583.81;;;32.57;47.81
10006;BME280;5042;42.626;23.382;2023-07-24T09:22:07;94577.84;;;32.81;46.45
10006;BME280;5042;42.626;23.382;2023-07-24T09:24:36;94577.34;;;32.79;46.04
10006;BME280;5042;42.626;23.382;2023-07-24T09:27:05;94570.03;;;33.18;52.29
10006;BME280;5042;42.626;23.382;2023-07-24T09:29:33;94576.22;;;33.57;49.83
10006;BME280;5042;42.626;23.382;2023-07-24T09:32:00;94565.88;;;33.71;46.42
10006;BME280;5042;42.626;23.382;2023-07-24T09:34:26;94565.50;;;33.52;46.08
10006;BME280;5042;42.626;23.382;2023-07-24T09:36:53;94561.63;;;33.62;46.08
10006;BME280;5042;42.626;23.382;2023-07-24T09:39:23;94554.88;;;33.38;45.82
10006;BME280;5042;42.626;23.382;2023-07-24T09:41:51;94554.88;;;33.68;48.50
10006;BME280;5042;42.626;23.382;2023-07-24T09:44:18;94516.91;;;33.92;45.47
10006;BME280;5042;42.626;23.382;2023-07-24T09:46:45;94546.09;;;34.04;45.89
10006;BME280;5042;42.626;23.382;2023-07-24T09:49:12;94534.75;;;34.35;50.52
10006;BME280;5042;42.626;23.382;2023-07-24T09:51:39;94534.50;;;34.61;53.62
10006;BME280;5042;42.626;23.382;2023-07-24T09:54:14;94537.81;;;34.67;47.90
10006;BME280;5042;42.626;23.382;2023-07-24T09:56:42;94535.19;;;34.83;47.37
10006;BME280;5042;42.626;23.382;2023-07-24T09:59:11;94529.19;;;34.90;44.02
10006;BME280;5042;42.626;23.382;2023-07-24T10:01:39;94515.47;;;34.86;47.62
10006;BME280;5042;42.626;23.382;2023-07-24T10:04:07;94528.88;;;35.16;46.36
10006;BME280;5042;42.626;23.382;2023-07-24T10:06:34;94522.28;;;34.80;46.30
10006;BME280;5042;42.626;23.382;2023-07-24T10:09:01;94513.72;;;34.57;46.43
10006;BME280;5042;42.626;23.382;2023-07-24T10:11:29;94515.13;;;34.75;45.30
10006;BME280;5042;42.626;23.382;2023-07-24T10:13:55;94518.88;;;35.08;49.84
10006;BME280;5042;42.626;23.382;2023-07-24T10:16:24;94517.97;;;35.16;41.63
10006;BME280;5042;42.626;23.382;2023-07-24T10:18:50;94510.81;;;35.11;44.24
10006;BME280;5042;42.626;23.382;2023-07-24T10:21:17;94510.69;;;35.08;42.91
10006;BME280;5042;42.626;23.382;2023-07-24T10:23:45;94513.88;;;34.97;40.63
10006;BME280;5042;42.626;23.382;2023-07-24T10:26:12;94507.88;;;34.67;39.49
10006;BME280;5042;42.626;23.382;2023-07-24T10:28:40;94503.84;;;34.52;40.22
10006;BME280;5042;42.626;23.382;2023-07-24T10:31:18;94489.28;;;34.24;43.15
10006;BME280;5042;42.626;23.382;2023-07-24T10:33:46;94491.59;;;34.58;45.15
10006;BME280;5042;42.626;23.382;2023-07-24T10:36:16;94493.69;;;34.86;45.49
10006;BME280;5042;42.626;23.382;2023-07-24T10:38:46;94486.66;;;34.73;41.62
10006;BME280;5042;42.626;23.382;2023-07-24T10:41:13;94483.91;;;34.73;43.84
10006;BME280;5042;42.626;23.382;2023-07-24T10:43:41;94469.94;;;34.99;43.02
10006;BME280;5042;42.626;23.382;2023-07-24T10:46:08;94477.22;;;34.95;43.64
10006;BME280;5042;42.626;23.382;2023-07-24T10:48:35;94487.09;;;34.99;40.84
10006;BME280;5042;42.626;23.382;2023-07-24T10:51:07;94471.44;;;34.96;43.17
10006;BME280;5042;42.626;23.382;2023-07-24T10:53:35;94479.34;;;35.26;39.96
10006;BME280;5042;42.626;23.382;2023-07-24T10:56:03;94470.19;;;35.59;44.78
10006;BME280;5042;42.626;23.382;2023-07-24T10:58:30;94467.22;;;35.64;39.08
10006;BME280;5042;42.626;23.382;2023-07-24T11:00:57;94460.69;;;35.40;44.11
10006;BME280;5042;42.626;23.382;2023-07-24T11:03:24;94463.16;;;35.58;40.95
10006;BME280;5042;42.626;23.382;2023-07-24T11:05:52;94457.63;;;35.82;40.88
10006;BME280;5042;42.626;23.382;2023-07-24T11:08:20;94457.41;;;36.03;42.04
10006;BME280;5042;42.626;23.382;2023-07-24T11:10:48;94460.34;;;35.82;42.40
10006;BME280;5042;42.626;23.382;2023-07-24T11:13:15;94417.47;;;35.67;39.31
10006;BME280;5042;42.626;23.382;2023-07-24T11:15:43;94449.28;;;36.19;43.41
10006;BME280;5042;42.626;23.382;2023-07-24T11:18:10;94442.47;;;36.45;39.96
10006;BME280;5042;42.626;23.382;2023-07-24T11:20:38;94437.28;;;36.40;37.21
10006;BME280;5042;42.626;23.382;2023-07-24T11:23:05;94441.00;;;36.32;38.07
10006;BME280;5042;42.626;23.382;2023-07-24T11:25:33;94432.28;;;36.42;37.74
10006;BME280;5042;42.626;23.382;2023-07-24T11:28:00;94434.13;;;36.22;38.42
10006;BME280;5042;42.626;23.382;2023-07-24T11:30:27;94433.69;;;36.20;38.93
10006;BME280;5042;42.626;23.382;2023-07-24T11:32:54;94430.50;;;36.18;35.99
10006;BME280;5042;42.626;23.382;2023-07-24T11:35:24;94427.44;;;36.19;35.49
10006;BME280;5042;42.626;23.382;2023-07-24T11:37:51;94423.59;;;36.08;37.45
10006;BME280;5042;42.626;23.382;2023-07-24T11:40:18;94417.50;;;36.27;39.30
10006;BME280;5042;42.626;23.382;2023-07-24T11:42:48;94403.16;;;36.14;37.67
10006;BME280;5042;42.626;23.382;2023-07-24T11:45:15;94408.50;;;36.11;36.41
10006;BME280;5042;42.626;23.382;2023-07-24T11:47:46;94408.44;;;35.79;36.84
10006;BME280;5042;42.626;23.382;2023-07-24T11:50:12;94403.47;;;35.68;36.74
10006;BME280;5042;42.626;23.382;2023-07-24T11:52:41;94408.84;;;35.65;35.76
10006;BME280;5042;42.626;23.382;2023-07-24T11:55:11;94415.13;;;35.81;35.84
10006;BME280;5042;42.626;23.382;2023-07-24T11:57:37;94412.94;;;35.87;38.28
10006;BME280;5042;42.626;23.382;2023-07-24T12:00:18;94399.63;;;35.70;36.17
10006;BME280;5042;42.626;23.382;2023-07-24T12:02:44;94407.13;;;35.88;37.11
10006;BME280;5042;42.626;23.382;2023-07-24T12:05:11;94402.88;;;35.75;38.08
10006;BME280;5042;42.626;23.382;2023-07-24T12:07:38;94364.44;;;35.52;36.84
10006;BME280;5042;42.626;23.382;2023-07-24T12:10:06;94399.19;;;35.67;37.05
10006;BME280;5042;42.626;23.382;2023-07-24T12:12:38;94400.06;;;35.87;38.30
10006;BME280;5042;42.626;23.382;2023-07-24T12:15:07;94391.88;;;35.72;38.04
10006;BME280;5042;42.626;23.382;2023-07-24T12:17:35;94387.94;;;35.69;37.98
10006;BME280;5042;42.626;23.382;2023-07-24T12:20:02;94390.72;;;35.73;36.43
10006;BME280;5042;42.626;23.382;2023-07-24T12:22:29;94392.16;;;35.82;35.93
10006;BME280;5042;42.626;23.382;2023-07-24T12:24:56;94396.91;;;35.85;34.34
10006;BME280;5042;42.626;23.382;2023-07-24T12:27:23;94397.38;;;36.03;35.58
10006;BME280;5042;42.626;23.382;2023-07-24T12:29:50;94377.44;;;36.15;34.95
10006;BME280;5042;42.626;23.382;2023-07-24T12:32:18;94383.59;;;36.12;34.30
10006;BME280;5042;42.626;23.382;2023-07-24T12:34:46;94388.69;;;36.14;36.07
10006;BME280;5042;42.626;23.382;2023-07-24T12:37:13;94375.47;;;36.00;37.24
10006;BME280;5042;42.626;23.382;2023-07-24T12:39:40;94378.78;;;36.09;37.28
10006;BME280;5042;42.626;23.382;2023-07-24T12:42:06;94379.38;;;36.15;38.55
10006;BME280;5042;42.626;23.382;2023-07-24T12:44:33;94385.50;;;36.12;34.99
10006;BME280;5042;42.626;23.382;2023-07-24T12:47:00;94376.28;;;36.16;35.71
10006;BME280;5042;42.626;23.382;2023-07-24T12:49:28;94373.03;;;36.26;35.98
10006;BME280;5042;42.626;23.382;2023-07-24T12:51:55;94368.81;;;36.13;35.83
10006;BME280;5042;42.626;23.382;2023-07-24T12:54:22;94374.19;;;36.09;33.82
10006;BME280;5042;42.626;23.382;2023-07-24T12:56:49;94366.59;;;36.19;36.18